sensor_id;sensor_type;location;lat;lon;timestamp;pressure;altitude;pressure_sealevel;temperature;humidity
23339;BME280;11841;49.368;20.962;2023-07-20T00:00:59;95179.44;;;19.99;92.85
23339;BME280;11841;49.368;20.962;2023-07-20T00:03:44;95173.91;;;19.90;93.79
23339;BME280;11841;49.368;20.962;2023-07-20T00:06:29;95170.47;;;19.85;94.20
23339;BME280;11841;49.368;20.962;2023-07-20T00:09:14;95164.34;;;19.79;94.38
23339;BME280;11841;49.368;20.962;2023-07-20T00:12:00;95167.88;;;19.75;94.79
23339;BME280;11841;49.368;20.962;2023-07-20T00:14:45;95165.72;;;19.77;94.61
23339;BME280;11841;49.368;20.962;2023-07-20T00:17:31;95153.88;;;19.78;93.84
23339;BME280;11841;49.368;20.962;2023-07-20T00:20:16;95157.66;;;19.77;93.43
23339;BME280;11841;49.368;20.962;2023-07-20T00:23:01;95165.56;;;19.68;93.86
23339;BME280;11841;49.368;20.962;2023-07-20T00:25:48;95159.53;;;19.53;94.53
23339;BME280;11841;49.368;20.962;2023-07-20T00:28:33;95163.28;;;19.52;94.84
23339;BME280;11841;49.368;20.962;2023-07-20T00:31:18;95175.59;;;19.58;94.22
23339;BME280;11841;49.368;20.962;2023-07-20T00:34:04;95171.81;;;19.59;93.89
23339;BME280;11841;49.368;20.962;2023-07-20T00:36:50;95178.28;;;19.58;93.78
23339;BME280;11841;49.368;20.962;2023-07-20T00:39:35;95179.06;;;19.58;93.42
23339;BME280;11841;49.368;20.962;2023-07-20T00:42:20;95174.78;;;19.57;93.52
23339;BME280;11841;49.368;20.962;2023-07-20T00:45:06;95167.59;;;19.53;94.25
23339;BME280;11841;49.368;20.962;2023-07-20T00:47:51;95170.88;;;19.50;94.88
23339;BME280;11841;49.368;20.962;2023-07-20T00:50:37;95168.66;;;19.52;94.39
23339;BME280;11841;49.368;20.962;2023-07-20T00:53:22;95174.03;;;19.52;94.12
23339;BME280;11841;49.368;20.962;2023-07-20T00:56:08;95175.44;;;19.49;93.93
23339;BME280;11841;49.368;20.962;2023-07-20T00:58:53;95180.28;;;19.47;93.91
23339;BME280;11841;49.368;20.962;2023-07-20T01:01:39;95180.00;;;19.49;93.75
23339;BME280;11841;49.368;20.962;2023-07-20T01:04:24;95175.19;;;19.46;94.03
23339;BME280;11841;49.368;20.962;2023-07-20T01:13:22;95163.06;;;19.48;95.11
23339;BME280;11841;49.368;20.962;2023-07-20T01:16:08;95162.28;;;19.48;96.09
23339;BME280;11841;49.368;20.962;2023-07-20T01:18:54;95155.84;;;19.44;96.83
23339;BME280;11841;49.368;20.962;2023-07-20T01:21:41;95161.81;;;19.41;97.12
23339;BME280;11841;49.368;20.962;2023-07-20T01:24:45;95157.00;;;19.38;97.22
23339;BME280;11841;49.368;20.962;2023-07-20T01:28:06;95158.59;;;19.39;96.93
23339;BME280;11841;49.368;20.962;2023-07-20T01:30:56;95155.09;;;19.38;97.12
23339;BME280;11841;49.368;20.962;2023-07-20T01:33:46;95152.66;;;19.42;96.97
23339;BME280;11841;49.368;20.962;2023-07-20T01:36:34;95149.38;;;19.45;96.95
23339;BME280;11841;49.368;20.962;2023-07-20T01:39:21;95149.44;;;19.40;97.45
23339;BME280;11841;49.368;20.962;2023-07-20T01:42:07;95149.72;;;19.38;97.47
23339;BME280;11841;49.368;20.962;2023-07-20T01:44:52;95151.06;;;19.41;97.12
23339;BME280;11841;49.368;20.962;2023-07-20T01:47:38;95151.34;;;19.39;97.08
23339;BME280;11841;49.368;20.962;2023-07-20T01:50:24;95152.75;;;19.32;97.62
23339;BME280;11841;49.368;20.962;2023-07-20T01:53:09;95145.22;;;19.28;98.04
23339;BME280;11841;49.368;20.962;2023-07-20T01:55:54;95138.78;;;19.30;98.11
23339;BME280;11841;49.368;20.962;2023-07-20T01:58:40;95136.34;;;19.28;98.50
23339;BME280;11841;49.368;20.962;2023-07-20T02:01:25;95137.47;;;19.27;98.62
23339;BME280;11841;49.368;20.962;2023-07-20T02:04:13;95128.06;;;19.24;98.46
23339;BME280;11841;49.368;20.962;2023-07-20T02:06:59;95128.59;;;19.26;98.41
23339;BME280;11841;49.368;20.962;2023-07-20T02:09:44;95135.81;;;19.31;98.32
23339;BME280;11841;49.368;20.962;2023-07-20T02:12:30;95127.75;;;19.31;98.50
23339;BME280;11841;49.368;20.962;2023-07-20T02:15:15;95121.31;;;19.32;98.37
23339;BME280;11841;49.368;20.962;2023-07-20T02:18:01;95126.69;;;19.32;98.35
23339;BME280;11841;49.368;20.962;2023-07-20T02:20:48;95124.53;;;19.29;98.21
23339;BME280;11841;49.368;20.962;2023-07-20T02:23:34;95118.34;;;19.28;97.99
23339;BME280;11841;49.368;20.962;2023-07-20T02:26:19;95117.28;;;19.30;98.06
23339;BME280;11841;49.368;20.962;2023-07-20T02:29:05;95126.97;;;19.31;97.98
23339;BME280;11841;49.368;20.962;2023-07-20T02:31:50;95121.03;;;19.28;98.05
23339;BME280;11841;49.368;20.962;2023-07-20T02:34:35;95127.78;;;19.26;98.51
23339;BME280;11841;49.368;20.962;2023-07-20T02:37:21;95125.59;;;19.28;98.38
23339;BME280;11841;49.368;20.962;2023-07-20T02:40:07;95124.28;;;19.31;97.54
23339;BME280;11841;49.368;20.962;2023-07-20T02:42:52;95123.47;;;19.30;96.92
23339;BME280;11841;49.368;20.962;2023-07-20T02:45:41;95126.41;;;19.28;96.33
23339;BME280;11841;49.368;20.962;2023-07-20T02:48:28;95126.19;;;19.25;96.37
23339;BME280;11841;49.368;20.962;2023-07-20T02:51:13;95127.56;;;19.22;96.05
23339;BME280;11841;49.368;20.962;2023-07-20T02:53:59;95121.16;;;19.18;96.15
23339;BME280;11841;49.368;20.962;2023-07-20T02:56:44;95119.31;;;19.14;96.34
23339;BME280;11841;49.368;20.962;2023-07-20T02:59:29;95111.25;;;19.14;96.72
23339;BME280;11841;49.368;20.962;2023-07-20T03:02:15;95108.28;;;19.15;96.50
23339;BME280;11841;49.368;20.962;2023-07-20T03:05:00;95102.91;;;19.15;96.21
23339;BME280;11841;49.368;20.962;2023-07-20T03:07:47;95109.34;;;19.14;95.99
23339;BME280;11841;49.368;20.962;2023-07-20T03:10:33;95102.41;;;19.13;96.36
23339;BME280;11841;49.368;20.962;2023-07-20T03:13:22;95104.56;;;19.11;96.75
23339;BME280;11841;49.368;20.962;2023-07-20T03:16:10;95114.03;;;19.04;97.24
23339;BME280;11841;49.368;20.962;2023-07-20T03:18:56;95109.56;;;18.94;97.36
23339;BME280;11841;49.368;20.962;2023-07-20T03:21:41;95108.50;;;18.90;97.40
23339;BME280;11841;49.368;20.962;2023-07-20T03:24:26;95108.56;;;18.85;97.70
23339;BME280;11841;49.368;20.962;2023-07-20T03:27:12;95109.06;;;18.87;97.98
23339;BME280;11841;49.368;20.962;2023-07-20T03:29:57;95116.03;;;18.93;97.71
23339;BME280;11841;49.368;20.962;2023-07-20T03:32:43;95107.97;;;18.93;97.73
23339;BME280;11841;49.368;20.962;2023-07-20T03:35:28;95106.06;;;18.94;97.63
23339;BME280;11841;49.368;20.962;2023-07-20T03:38:14;95098.81;;;18.94;97.70
23339;BME280;11841;49.368;20.962;2023-07-20T03:41:00;95100.97;;;18.92;97.87
23339;BME280;11841;49.368;20.962;2023-07-20T03:43:45;95102.13;;;18.86;98.43
23339;BME280;11841;49.368;20.962;2023-07-20T03:46:31;95103.47;;;18.84;99.00
23339;BME280;11841;49.368;20.962;2023-07-20T03:49:19;95103.72;;;18.87;98.66
23339;BME280;11841;49.368;20.962;2023-07-20T03:52:05;95106.34;;;18.92;98.39
23339;BME280;11841;49.368;20.962;2023-07-20T03:54:50;95107.41;;;18.96;98.49
23339;BME280;11841;49.368;20.962;2023-07-20T03:57:38;95108.69;;;18.99;98.41
23339;BME280;11841;49.368;20.962;2023-07-20T04:00:24;95109.22;;;19.01;98.30
23339;BME280;11841;49.368;20.962;2023-07-20T04:03:09;95115.41;;;19.01;98.47
23339;BME280;11841;49.368;20.962;2023-07-20T04:05:55;95113.28;;;18.98;98.75
23339;BME280;11841;49.368;20.962;2023-07-20T04:08:40;95115.78;;;18.90;99.34
23339;BME280;11841;49.368;20.962;2023-07-20T04:11:25;95108.31;;;18.87;99.89
23339;BME280;11841;49.368;20.962;2023-07-20T04:14:11;95104.28;;;18.84;100.00
23339;BME280;11841;49.368;20.962;2023-07-20T04:16:56;95104.31;;;18.79;100.00
23339;BME280;11841;49.368;20.962;2023-07-20T04:19:42;95098.47;;;18.72;100.00
23339;BME280;11841;49.368;20.962;2023-07-20T04:22:28;95092.00;;;18.78;100.00
23339;BME280;11841;49.368;20.962;2023-07-20T04:25:13;95097.84;;;18.80;100.00
23339;BME280;11841;49.368;20.962;2023-07-20T04:27:59;95102.22;;;18.76;100.00
23339;BME280;11841;49.368;20.962;2023-07-20T04:30:48;95102.84;;;18.63;100.00
23339;BME280;11841;49.368;20.962;2023-07-20T04:33:34;95116.84;;;18.60;100.00
23339;BME280;11841;49.368;20.962;2023-07-20T04:36:19;95120.00;;;18.67;100.00
23339;BME280;11841;49.368;20.962;2023-07-20T04:39:05;95128.06;;;18.67;100.00
23339;BME280;11841;49.368;20.962;2023-07-20T04:42:05;95126.75;;;18.65;100.00
23339;BME280;11841;49.368;20.962;2023-07-20T04:44:50;95128.06;;;18.67;100.00
23339;BME280;11841;49.368;20.962;2023-07-20T04:47:36;95133.44;;;18.67;100.00
23339;BME280;11841;49.368;20.962;2023-07-20T04:50:21;95141.56;;;18.57;100.00
23339;BME280;11841;49.368;20.962;2023-07-20T04:53:06;95142.66;;;18.56;100.00
23339;BME280;11841;49.368;20.962;2023-07-20T04:55:52;95141.81;;;18.61;100.00
23339;BME280;11841;49.368;20.962;2023-07-20T04:58:39;95138.78;;;18.67;100.00
23339;BME280;11841;49.368;20.962;2023-07-20T05:01:25;95144.22;;;18.62;100.00
23339;BME280;11841;49.368;20.962;2023-07-20T05:04:11;95153.03;;;18.68;100.00
23339;BME280;11841;49.368;20.962;2023-07-20T05:06:56;95165.06;;;18.70;100.00
23339;BME280;11841;49.368;20.962;2023-07-20T05:09:42;95176.09;;;18.69;100.00
23339;BME280;11841;49.368;20.962;2023-07-20T05:12:27;95168.81;;;18.74;100.00
23339;BME280;11841;49.368;20.962;2023-07-20T05:15:12;95163.94;;;18.81;100.00
23339;BME280;11841;49.368;20.962;2023-07-20T05:17:58;95160.97;;;18.83;100.00
23339;BME280;11841;49.368;20.962;2023-07-20T05:20:45;95159.13;;;18.78;100.00
23339;BME280;11841;49.368;20.962;2023-07-20T05:23:31;95153.59;;;18.65;100.00
23339;BME280;11841;49.368;20.962;2023-07-20T05:26:17;95152.22;;;18.67;100.00
23339;BME280;11841;49.368;20.962;2023-07-20T05:29:02;95164.09;;;18.61;100.00
23339;BME280;11841;49.368;20.962;2023-07-20T05:31:47;95162.72;;;18.64;100.00
23339;BME280;11841;49.368;20.962;2023-07-20T05:34:32;95153.03;;;18.68;100.00
23339;BME280;11841;49.368;20.962;2023-07-20T05:37:17;95157.09;;;18.60;100.00
23339;BME280;11841;49.368;20.962;2023-07-20T05:40:03;95164.88;;;18.62;100.00
23339;BME280;11841;49.368;20.962;2023-07-20T05:42:49;95166.16;;;18.69;100.00
23339;BME280;11841;49.368;20.962;2023-07-20T05:45:37;95167.22;;;18.73;100.00
23339;BME280;11841;49.368;20.962;2023-07-20T05:48:23;95167.94;;;18.84;100.00
23339;BME280;11841;49.368;20.962;2023-07-20T05:51:09;95157.34;;;18.97;100.00
23339;BME280;11841;49.368;20.962;2023-07-20T05:53:54;95163.44;;;19.08;100.00
23339;BME280;11841;49.368;20.962;2023-07-20T05:56:39;95149.91;;;19.18;100.00
23339;BME280;11841;49.368;20.962;2023-07-20T05:59:24;95167.63;;;19.19;100.00
23339;BME280;11841;49.368;20.962;2023-07-20T06:02:10;95167.06;;;19.22;100.00
23339;BME280;11841;49.368;20.962;2023-07-20T06:04:56;95169.47;;;19.23;100.00
23339;BME280;11841;49.368;20.962;2023-07-20T06:07:41;95170.50;;;19.27;100.00
23339;BME280;11841;49.368;20.962;2023-07-20T06:10:27;95172.09;;;19.34;100.00
23339;BME280;11841;49.368;20.962;2023-07-20T06:13:12;95168.00;;;19.41;100.00
23339;BME280;11841;49.368;20.962;2023-07-20T06:15:57;95185.94;;;19.46;100.00
23339;BME280;11841;49.368;20.962;2023-07-20T06:18:43;95191.84;;;19.48;100.00
23339;BME280;11841;49.368;20.962;2023-07-20T06:21:28;95186.41;;;19.53;100.00
23339;BME280;11841;49.368;20.962;2023-07-20T06:24:13;95185.84;;;19.56;99.49
23339;BME280;11841;49.368;20.962;2023-07-20T06:26:59;95179.53;;;19.65;97.19
23339;BME280;11841;49.368;20.962;2023-07-20T06:29:44;95193.75;;;19.71;96.55
23339;BME280;11841;49.368;20.962;2023-07-20T06:32:29;95207.72;;;19.73;90.12
23339;BME280;11841;49.368;20.962;2023-07-20T06:35:15;95204.16;;;19.77;88.01
23339;BME280;11841;49.368;20.962;2023-07-20T06:38:01;95202.50;;;19.81;86.47
23339;BME280;11841;49.368;20.962;2023-07-20T06:40:51;95208.06;;;19.90;84.90
23339;BME280;11841;49.368;20.962;2023-07-20T06:43:36;95221.81;;;19.88;80.33
23339;BME280;11841;49.368;20.962;2023-07-20T06:46:25;95215.66;;;19.83;79.47
23339;BME280;11841;49.368;20.962;2023-07-20T06:49:24;95231.56;;;19.79;78.78
23339;BME280;11841;49.368;20.962;2023-07-20T06:52:09;95240.75;;;19.78;79.76
23339;BME280;11841;49.368;20.962;2023-07-20T06:54:55;95241.22;;;19.80;78.98
23339;BME280;11841;49.368;20.962;2023-07-20T06:57:40;95246.41;;;19.77;79.14
23339;BME280;11841;49.368;20.962;2023-07-20T07:00:31;95249.66;;;19.74;78.69
23339;BME280;11841;49.368;20.962;2023-07-20T07:03:16;95241.91;;;19.67;77.93
23339;BME280;11841;49.368;20.962;2023-07-20T07:06:02;95248.97;;;19.63;78.50
23339;BME280;11841;49.368;20.962;2023-07-20T07:08:48;95251.88;;;19.67;79.45
23339;BME280;11841;49.368;20.962;2023-07-20T07:11:34;95256.47;;;19.66;78.05
23339;BME280;11841;49.368;20.962;2023-07-20T07:14:20;95261.06;;;19.61;77.60
23339;BME280;11841;49.368;20.962;2023-07-20T07:17:05;95256.81;;;19.60;78.01
23339;BME280;11841;49.368;20.962;2023-07-20T07:19:52;95250.59;;;19.59;77.99
23339;BME280;11841;49.368;20.962;2023-07-20T07:22:40;95248.22;;;19.58;77.19
23339;BME280;11841;49.368;20.962;2023-07-20T07:25:30;95254.59;;;19.62;77.70
23339;BME280;11841;49.368;20.962;2023-07-20T07:28:17;95255.38;;;19.67;78.35
23339;BME280;11841;49.368;20.962;2023-07-20T07:31:05;95257.16;;;19.77;78.72
23339;BME280;11841;49.368;20.962;2023-07-20T07:33:51;95257.13;;;19.82;78.62
23339;BME280;11841;49.368;20.962;2023-07-20T07:36:36;95258.75;;;19.78;79.02
23339;BME280;11841;49.368;20.962;2023-07-20T07:39:22;95265.31;;;19.67;78.37
23339;BME280;11841;49.368;20.962;2023-07-20T07:42:12;95269.09;;;19.66;79.38
23339;BME280;11841;49.368;20.962;2023-07-20T07:44:58;95276.63;;;19.64;79.15
23339;BME280;11841;49.368;20.962;2023-07-20T07:47:43;95272.06;;;19.64;79.62
23339;BME280;11841;49.368;20.962;2023-07-20T07:50:29;95272.84;;;19.70;80.32
23339;BME280;11841;49.368;20.962;2023-07-20T07:53:14;95265.69;;;19.84;80.58
23339;BME280;11841;49.368;20.962;2023-07-20T07:56:00;95282.88;;;19.88;78.59
23339;BME280;11841;49.368;20.962;2023-07-20T07:58:45;95279.38;;;19.87;77.87
23339;BME280;11841;49.368;20.962;2023-07-20T08:01:31;95275.38;;;19.85;77.53
23339;BME280;11841;49.368;20.962;2023-07-20T08:04:16;95273.19;;;19.87;77.61
23339;BME280;11841;49.368;20.962;2023-07-20T08:07:03;95277.44;;;19.93;77.85
23339;BME280;11841;49.368;20.962;2023-07-20T08:09:49;95273.63;;;19.99;79.01
23339;BME280;11841;49.368;20.962;2023-07-20T08:12:35;95270.22;;;20.12;78.81
23339;BME280;11841;49.368;20.962;2023-07-20T08:15:20;95281.50;;;20.19;78.05
23339;BME280;11841;49.368;20.962;2023-07-20T08:18:05;95269.28;;;20.26;77.51
23339;BME280;11841;49.368;20.962;2023-07-20T08:20:51;95290.53;;;20.28;76.44
23339;BME280;11841;49.368;20.962;2023-07-20T08:23:37;95284.34;;;20.27;75.96
23339;BME280;11841;49.368;20.962;2023-07-20T08:26:23;95274.59;;;20.31;76.64
23339;BME280;11841;49.368;20.962;2023-07-20T08:29:09;95285.59;;;20.35;76.67
23339;BME280;11841;49.368;20.962;2023-07-20T08:31:54;95293.59;;;20.40;77.39
23339;BME280;11841;49.368;20.962;2023-07-20T08:34:42;95286.06;;;20.42;75.43
23339;BME280;11841;49.368;20.962;2023-07-20T08:37:27;95278.13;;;20.51;75.51
23339;BME280;11841;49.368;20.962;2023-07-20T08:40:13;95285.13;;;20.52;75.73
23339;BME280;11841;49.368;20.962;2023-07-20T08:42:59;95282.38;;;20.57;75.48
23339;BME280;11841;49.368;20.962;2023-07-20T08:45:48;95283.84;;;20.68;75.43
23339;BME280;11841;49.368;20.962;2023-07-20T08:48:34;95278.91;;;20.75;75.95
23339;BME280;11841;49.368;20.962;2023-07-20T08:51:21;95280.50;;;20.76;75.34
23339;BME280;11841;49.368;20.962;2023-07-20T08:54:08;95284.59;;;20.92;76.89
23339;BME280;11841;49.368;20.962;2023-07-20T08:56:56;95277.47;;;21.01;74.92
23339;BME280;11841;49.368;20.962;2023-07-20T08:59:43;95270.91;;;21.07;75.25
23339;BME280;11841;49.368;20.962;2023-07-20T09:02:30;95262.97;;;21.15;75.10
23339;BME280;11841;49.368;20.962;2023-07-20T09:05:22;95282.19;;;21.27;73.20
23339;BME280;11841;49.368;20.962;2023-07-20T09:08:10;95285.63;;;21.33;72.52
23339;BME280;11841;49.368;20.962;2023-07-20T09:10:55;95285.81;;;21.36;73.66
23339;BME280;11841;49.368;20.962;2023-07-20T09:13:41;95276.03;;;21.40;74.08
23339;BME280;11841;49.368;20.962;2023-07-20T09:16:26;95285.25;;;21.39;70.02
23339;BME280;11841;49.368;20.962;2023-07-20T09:19:16;95278.66;;;21.45;70.02
23339;BME280;11841;49.368;20.962;2023-07-20T09:22:01;95274.50;;;21.53;71.06
23339;BME280;11841;49.368;20.962;2023-07-20T09:24:47;95277.25;;;21.67;70.10
23339;BME280;11841;49.368;20.962;2023-07-20T09:27:39;95280.34;;;21.74;70.07
23339;BME280;11841;49.368;20.962;2023-07-20T09:30:25;95281.94;;;21.75;69.68
23339;BME280;11841;49.368;20.962;2023-07-20T09:33:21;95283.06;;;21.74;68.90
23339;BME280;11841;49.368;20.962;2023-07-20T09:36:09;95288.59;;;21.82;68.39
23339;BME280;11841;49.368;20.962;2023-07-20T09:39:16;95288.41;;;21.79;67.41
23339;BME280;11841;49.368;20.962;2023-07-20T09:42:14;95290.34;;;21.73;67.00
23339;BME280;11841;49.368;20.962;2023-07-20T09:45:02;95290.13;;;21.70;67.29
23339;BME280;11841;49.368;20.962;2023-07-20T09:47:47;95295.72;;;21.73;67.39
23339;BME280;11841;49.368;20.962;2023-07-20T09:50:53;95288.53;;;21.69;67.29
23339;BME280;11841;49.368;20.962;2023-07-20T09:53:39;95292.00;;;21.69;67.74
23339;BME280;11841;49.368;20.962;2023-07-20T09:56:25;95283.16;;;21.69;67.84
23339;BME280;11841;49.368;20.962;2023-07-20T09:59:12;95267.94;;;21.73;68.28
23339;BME280;11841;49.368;20.962;2023-07-20T10:01:58;95279.41;;;21.83;69.20
23339;BME280;11841;49.368;20.962;2023-07-20T10:04:44;95279.41;;;21.83;66.92
23339;BME280;11841;49.368;20.962;2023-07-20T10:07:30;95280.78;;;21.81;67.22
23339;BME280;11841;49.368;20.962;2023-07-20T10:10:18;95280.28;;;21.79;66.23
23339;BME280;11841;49.368;20.962;2023-07-20T10:13:04;95281.38;;;21.78;64.74
23339;BME280;11841;49.368;20.962;2023-07-20T10:15:54;95277.06;;;21.77;65.57
23339;BME280;11841;49.368;20.962;2023-07-20T10:18:50;95283.06;;;21.74;64.96
23339;BME280;11841;49.368;20.962;2023-07-20T10:21:40;95291.63;;;21.76;64.68
23339;BME280;11841;49.368;20.962;2023-07-20T10:24:28;95271.09;;;21.80;64.94
23339;BME280;11841;49.368;20.962;2023-07-20T10:27:15;95269.00;;;21.90;66.97
23339;BME280;11841;49.368;20.962;2023-07-20T10:30:00;95252.63;;;22.00;68.37
23339;BME280;11841;49.368;20.962;2023-07-20T10:32:48;95257.31;;;22.08;67.51
23339;BME280;11841;49.368;20.962;2023-07-20T10:35:57;95256.72;;;22.11;65.08
23339;BME280;11841;49.368;20.962;2023-07-20T10:41:35;95254.84;;;22.12;65.67
23339;BME280;11841;49.368;20.962;2023-07-20T10:44:21;95255.84;;;22.16;64.22
23339;BME280;11841;49.368;20.962;2023-07-20T10:47:12;95262.03;;;22.16;63.87
23339;BME280;11841;49.368;20.962;2023-07-20T10:49:59;95246.53;;;22.22;63.80
23339;BME280;11841;49.368;20.962;2023-07-20T10:53:04;95251.13;;;22.35;64.87
23339;BME280;11841;49.368;20.962;2023-07-20T10:56:05;95241.41;;;22.47;64.57
23339;BME280;11841;49.368;20.962;2023-07-20T10:58:56;95227.59;;;22.49;63.49
23339;BME280;11841;49.368;20.962;2023-07-20T11:01:43;95233.44;;;22.56;63.11
23339;BME280;11841;49.368;20.962;2023-07-20T11:04:43;95238.03;;;22.55;61.42
23339;BME280;11841;49.368;20.962;2023-07-20T11:07:37;95239.94;;;22.55;62.54
23339;BME280;11841;49.368;20.962;2023-07-20T11:10:26;95241.03;;;22.54;62.22
23339;BME280;11841;49.368;20.962;2023-07-20T11:13:30;95245.66;;;22.53;62.59
23339;BME280;11841;49.368;20.962;2023-07-20T11:16:16;95244.25;;;22.56;61.88
23339;BME280;11841;49.368;20.962;2023-07-20T11:19:03;95241.03;;;22.54;61.69
23339;BME280;11841;49.368;20.962;2023-07-20T11:21:51;95244.53;;;22.54;63.01
23339;BME280;11841;49.368;20.962;2023-07-20T11:24:47;95230.81;;;22.64;62.22
23339;BME280;11841;49.368;20.962;2023-07-20T11:27:44;95247.63;;;22.75;62.82
23339;BME280;11841;49.368;20.962;2023-07-20T11:30:33;95242.78;;;22.86;60.31
23339;BME280;11841;49.368;20.962;2023-07-20T11:33:19;95239.81;;;23.09;59.96
23339;BME280;11841;49.368;20.962;2023-07-20T11:36:04;95228.03;;;23.27;59.24
23339;BME280;11841;49.368;20.962;2023-07-20T11:39:12;95231.44;;;23.33;60.70
23339;BME280;11841;49.368;20.962;2023-07-20T11:41:58;95243.25;;;23.23;60.43
23339;BME280;11841;49.368;20.962;2023-07-20T11:44:44;95237.28;;;23.13;60.25
23339;BME280;11841;49.368;20.962;2023-07-20T11:47:30;95245.22;;;23.09;60.12
23339;BME280;11841;49.368;20.962;2023-07-20T11:50:15;95255.03;;;23.05;61.05
23339;BME280;11841;49.368;20.962;2023-07-20T11:53:01;95261.13;;;22.75;63.12
23339;BME280;11841;49.368;20.962;2023-07-20T11:55:49;95255.84;;;22.70;62.91
23339;BME280;11841;49.368;20.962;2023-07-20T11:58:35;95260.22;;;22.66;61.18
23339;BME280;11841;49.368;20.962;2023-07-20T12:01:20;95267.53;;;22.65;61.68
23339;BME280;11841;49.368;20.962;2023-07-20T12:04:05;95276.56;;;22.61;62.62
23339;BME280;11841;49.368;20.962;2023-07-20T12:06:53;95279.44;;;22.51;61.96
23339;BME280;11841;49.368;20.962;2023-07-20T12:09:40;95279.63;;;22.41;62.91
23339;BME280;11841;49.368;20.962;2023-07-20T12:12:48;95276.75;;;22.37;64.03
23339;BME280;11841;49.368;20.962;2023-07-20T12:15:33;95264.63;;;22.35;64.72
23339;BME280;11841;49.368;20.962;2023-07-20T12:18:22;95272.16;;;22.38;65.18
23339;BME280;11841;49.368;20.962;2023-07-20T12:21:08;95271.03;;;22.39;64.48
23339;BME280;11841;49.368;20.962;2023-07-20T12:23:56;95278.84;;;22.40;62.84
23339;BME280;11841;49.368;20.962;2023-07-20T12:26:42;95272.34;;;22.41;62.77
23339;BME280;11841;49.368;20.962;2023-07-20T12:29:28;95281.63;;;22.49;63.34
23339;BME280;11841;49.368;20.962;2023-07-20T12:32:13;95265.34;;;22.54;62.85
23339;BME280;11841;49.368;20.962;2023-07-20T12:34:58;95269.06;;;22.58;62.16
23339;BME280;11841;49.368;20.962;2023-07-20T12:37:45;95257.94;;;22.59;61.30
23339;BME280;11841;49.368;20.962;2023-07-20T12:40:34;95264.56;;;22.53;61.45
23339;BME280;11841;49.368;20.962;2023-07-20T12:43:19;95271.03;;;22.52;62.63
23339;BME280;11841;49.368;20.962;2023-07-20T12:46:05;95261.34;;;22.65;63.85
23339;BME280;11841;49.368;20.962;2023-07-20T12:48:51;95260.19;;;22.80;63.19
23339;BME280;11841;49.368;20.962;2023-07-20T12:51:36;95251.59;;;22.77;61.30
23339;BME280;11841;49.368;20.962;2023-07-20T12:54:21;95248.00;;;22.82;61.69
23339;BME280;11841;49.368;20.962;2023-07-20T12:57:06;95236.34;;;22.95;62.43
23339;BME280;11841;49.368;20.962;2023-07-20T12:59:55;95237.94;;;22.96;61.20
23339;BME280;11841;49.368;20.962;2023-07-20T13:02:40;95240.94;;;22.95;61.13
23339;BME280;11841;49.368;20.962;2023-07-20T13:05:27;95225.91;;;23.02;61.62
23339;BME280;11841;49.368;20.962;2023-07-20T13:08:15;95232.41;;;23.23;61.44
23339;BME280;11841;49.368;20.962;2023-07-20T13:11:03;95238.22;;;23.30;60.78
23339;BME280;11841;49.368;20.962;2023-07-20T13:13:49;95241.56;;;23.49;62.03
23339;BME280;11841;49.368;20.962;2023-07-20T13:16:35;95246.72;;;23.59;59.90
23339;BME280;11841;49.368;20.962;2023-07-20T13:19:20;95246.28;;;23.66;57.88
23339;BME280;11841;49.368;20.962;2023-07-20T13:22:06;95242.16;;;23.68;56.09
23339;BME280;11841;49.368;20.962;2023-07-20T13:24:52;95247.75;;;23.72;54.88
23339;BME280;11841;49.368;20.962;2023-07-20T13:27:37;95236.13;;;23.71;55.29
23339;BME280;11841;49.368;20.962;2023-07-20T13:30:24;95232.44;;;23.67;55.83
23339;BME280;11841;49.368;20.962;2023-07-20T13:33:10;95234.41;;;23.75;57.23
23339;BME280;11841;49.368;20.962;2023-07-20T13:36:02;95232.88;;;23.91;57.17
23339;BME280;11841;49.368;20.962;2023-07-20T13:38:53;95229.97;;;24.10;56.18
23339;BME280;11841;49.368;20.962;2023-07-20T13:41:39;95226.34;;;24.15;54.00
23339;BME280;11841;49.368;20.962;2023-07-20T13:44:24;95227.28;;;24.19;53.35
23339;BME280;11841;49.368;20.962;2023-07-20T13:47:09;95223.34;;;24.25;54.97
23339;BME280;11841;49.368;20.962;2023-07-20T13:49:58;95235.97;;;24.38;52.55
23339;BME280;11841;49.368;20.962;2023-07-20T13:52:46;95230.53;;;24.38;52.77
23339;BME280;11841;49.368;20.962;2023-07-20T13:55:31;95237.47;;;24.22;52.93
23339;BME280;11841;49.368;20.962;2023-07-20T13:58:21;95234.63;;;24.27;52.70
23339;BME280;11841;49.368;20.962;2023-07-20T14:01:07;95229.06;;;24.32;53.02
23339;BME280;11841;49.368;20.962;2023-07-20T14:03:52;95242.50;;;24.37;53.77
23339;BME280;11841;49.368;20.962;2023-07-20T14:06:38;95247.13;;;24.45;53.33
23339;BME280;11841;49.368;20.962;2023-07-20T14:09:23;95253.47;;;24.40;53.10
23339;BME280;11841;49.368;20.962;2023-07-20T14:12:09;95251.88;;;24.31;53.30
23339;BME280;11841;49.368;20.962;2023-07-20T14:14:58;95249.00;;;24.27;53.49
23339;BME280;11841;49.368;20.962;2023-07-20T14:17:43;95251.00;;;24.13;53.43
23339;BME280;11841;49.368;20.962;2023-07-20T14:20:29;95257.50;;;24.04;54.52
23339;BME280;11841;49.368;20.962;2023-07-20T14:23:14;95254.03;;;23.89;54.41
23339;BME280;11841;49.368;20.962;2023-07-20T14:26:00;95257.47;;;23.73;53.47
23339;BME280;11841;49.368;20.962;2023-07-20T14:28:45;95262.56;;;23.52;54.11
23339;BME280;11841;49.368;20.962;2023-07-20T14:31:31;95265.22;;;23.44;54.29
23339;BME280;11841;49.368;20.962;2023-07-20T14:34:17;95267.69;;;23.32;54.70
23339;BME280;11841;49.368;20.962;2023-07-20T14:37:07;95270.91;;;23.20;54.69
23339;BME280;11841;49.368;20.962;2023-07-20T14:39:52;95274.16;;;23.09;54.81